Time;durP1;ratioP1;P1;durP2;ratioP2;P2;SDS_P1;SDS_P2;PMS_P1;PMS_P2;Temp;Humidity;BMP_temperature;BMP_pressure;BME280_temperature;BME280_humidity;BME280_pressure;Samples;Min_cycle;Max_cycle;Signal;HPM_P1;HPM_P2
2021/01/24 00:00:50;;;;;;;7.17;6.60;;;;;;;20.64;38.21;98550.94;5073425;28;20188;-34
2021/01/24 00:03:17;;;;;;;7.97;7.27;;;;;;;20.63;38.32;98555.53;5054732;28;20637;-40
2021/01/24 00:05:44;;;;;;;8.17;7.47;;;;;;;20.62;38.12;98553.91;5064042;28;20215;-39
2021/01/24 00:08:11;;;;;;;7.07;6.57;;;;;;;20.61;38.04;98554.13;5072499;28;20203;-42
2021/01/24 00:10:37;;;;;;;7.80;7.20;;;;;;;20.60;38.11;98552.47;5070333;28;20198;-41
2021/01/24 00:13:03;;;;;;;7.50;6.90;;;;;;;20.58;37.98;98555.41;5065521;28;20196;-46
2021/01/24 00:15:29;;;;;;;7.50;6.90;;;;;;;20.57;37.89;98547.47;5072434;28;20183;-46
2021/01/24 00:17:55;;;;;;;7.60;7.00;;;;;;;20.57;38.06;98563.78;5073793;28;20217;-45
2021/01/24 00:20:21;;;;;;;7.03;6.43;;;;;;;20.53;37.91;98553.38;5073557;28;20218;-45
2021/01/24 00:22:47;;;;;;;6.67;6.17;;;;;;;20.52;38.25;98550.91;5072587;28;20198;-45
2021/01/24 00:25:14;;;;;;;7.10;6.57;;;;;;;20.53;38.37;98561.53;5073630;28;20270;-44
2021/01/24 00:27:40;;;;;;;7.33;6.73;;;;;;;20.52;38.19;98557.16;5073526;28;20211;-41
2021/01/24 00:30:07;;;;;;;6.87;6.37;;;;;;;20.52;38.42;98557.16;5073387;28;20183;-46
2021/01/24 00:32:33;;;;;;;6.70;6.20;;;;;;;20.51;38.26;98560.13;5070657;28;20530;-46
2021/01/24 00:34:59;;;;;;;7.07;6.47;;;;;;;20.51;38.54;98560.94;5061361;28;20189;-44
2021/01/24 00:37:25;;;;;;;6.63;6.13;;;;;;;20.50;38.41;98562.00;5052664;28;20567;-42
2021/01/24 00:39:51;;;;;;;6.70;6.20;;;;;;;20.51;38.61;98566.38;5052855;28;20295;-41
2021/01/24 00:42:17;;;;;;;6.53;6.03;;;;;;;20.51;38.72;98560.94;5052091;28;20195;-45
2021/01/24 00:44:44;;;;;;;6.80;6.20;;;;;;;20.53;38.66;98568.88;5052621;28;20189;-45
2021/01/24 00:47:10;;;;;;;6.60;6.10;;;;;;;20.54;38.37;98571.34;5052377;28;20200;-45
2021/01/24 00:49:36;;;;;;;6.50;6.00;;;;;;;20.54;38.53;98574.06;5054854;28;20173;-47
2021/01/24 00:52:02;;;;;;;6.57;6.07;;;;;;;20.54;38.63;98576.78;5071882;28;20269;-46
2021/01/24 00:54:28;;;;;;;6.67;6.17;;;;;;;20.54;38.67;98575.97;5063367;28;20187;-46
2021/01/24 00:56:54;;;;;;;6.30;5.80;;;;;;;20.54;38.54;98582.22;5067177;28;20208;-45
2021/01/24 00:59:20;;;;;;;6.10;5.60;;;;;;;20.54;38.41;98587.66;5068143;28;20317;-43
2021/01/24 01:01:47;;;;;;;6.30;5.80;;;;;;;20.53;38.42;98586.00;5072129;28;20195;-47
2021/01/24 01:04:13;;;;;;;6.57;6.07;;;;;;;20.54;38.43;98587.66;5056758;28;20188;-45
2021/01/24 01:06:39;;;;;;;5.90;5.50;;;;;;;20.52;38.48;98583.50;5051997;28;20645;-38
2021/01/24 01:09:05;;;;;;;6.33;5.83;;;;;;;20.51;38.44;98588.13;5064331;28;20193;-38
2021/01/24 01:11:31;;;;;;;6.40;5.90;;;;;;;20.51;38.46;98585.41;5071218;28;20307;-37
2021/01/24 01:13:57;;;;;;;5.87;5.47;;;;;;;20.50;38.29;98586.47;5072298;28;20586;-37
2021/01/24 01:16:23;;;;;;;5.97;5.50;;;;;;;20.48;38.11;98590.47;5071832;28;20252;-43
2021/01/24 01:18:49;;;;;;;5.97;5.50;;;;;;;20.47;38.02;98603.25;5071929;28;20727;-43
2021/01/24 01:21:15;;;;;;;6.33;5.83;;;;;;;20.47;38.31;98599.69;5054421;28;20240;-47
2021/01/24 01:23:41;;;;;;;6.00;5.50;;;;;;;20.45;38.00;98599.94;5071909;28;20190;-47
2021/01/24 01:26:07;;;;;;;6.00;5.50;;;;;;;20.44;38.03;98603.72;5070697;28;20641;-47
2021/01/24 01:28:33;;;;;;;6.03;5.53;;;;;;;20.44;38.15;98609.16;5071794;28;20210;-47
2021/01/24 01:30:59;;;;;;;5.60;5.20;;;;;;;20.42;38.06;98611.28;5070722;28;20221;-47
2021/01/24 01:33:25;;;;;;;5.70;5.30;;;;;;;20.41;38.35;98617.75;5071939;28;20579;-47
2021/01/24 01:35:51;;;;;;;6.03;5.53;;;;;;;20.41;38.46;98609.63;5071941;28;20212;-47
2021/01/24 01:38:18;;;;;;;6.00;5.50;;;;;;;20.40;38.24;98613.41;5070641;28;20249;-47
2021/01/24 01:40:44;;;;;;;5.57;5.17;;;;;;;20.40;38.56;98613.41;5071750;28;20496;-47
2021/01/24 01:43:10;;;;;;;5.60;5.17;;;;;;;20.40;38.45;98623.41;5071685;28;20253;-45
2021/01/24 01:45:36;;;;;;;5.50;5.10;;;;;;;20.40;38.52;98623.41;5070552;28;20690;-44
2021/01/24 01:48:02;;;;;;;5.50;5.10;;;;;;;20.40;38.52;98631.56;5071064;28;20184;-44
2021/01/24 01:50:28;;;;;;;5.37;4.97;;;;;;;20.40;38.65;98629.69;5074690;28;20258;-44
2021/01/24 01:52:54;;;;;;;5.20;4.80;;;;;;;20.41;38.47;98636.78;5075459;28;20822;-44
2021/01/24 01:55:20;;;;;;;5.37;4.97;;;;;;;20.41;38.65;98631.34;5057643;28;20193;-44
2021/01/24 01:57:46;;;;;;;5.33;4.93;;;;;;;20.41;38.54;98634.06;5075671;28;20249;-44
2021/01/24 02:00:13;;;;;;;5.40;5.00;;;;;;;20.42;38.54;98649.31;5075258;28;20246;-51
2021/01/24 02:02:43;;;;;;;5.40;5.00;;;;;;;20.42;38.67;98643.88;5075516;28;20696;-46
2021/01/24 02:05:31;;;;;;;4.97;4.57;;;;;;;20.44;38.34;98647.19;5057701;28;20192;-47
2021/01/24 02:08:02;;;;;;;5.63;5.23;;;;;;;20.42;38.41;98646.59;5074477;28;20176;-47
2021/01/24 02:10:39;;;;;;;5.63;5.23;;;;;;;20.43;38.35;98642.81;5057723;28;20179;-45
2021/01/24 02:13:27;;;;;;;4.83;4.53;;;;;;;20.43;38.36;98650.16;5058249;28;20309;-42
2021/01/24 02:15:53;;;;;;;4.90;4.50;;;;;;;20.39;38.25;98655.19;5073930;28;20669;-43
2021/01/24 02:18:19;;;;;;;5.30;4.90;;;;;;;20.38;38.18;98653.53;5057474;28;20183;-38
2021/01/24 02:20:45;;;;;;;5.27;4.87;;;;;;;20.37;38.41;98657.31;5074259;28;20665;-40
2021/01/24 02:23:12;;;;;;;5.20;4.80;;;;;;;20.36;38.28;98655.66;5075314;28;20191;-46
2021/01/24 02:25:51;;;;;;;4.57;4.27;;;;;;;20.36;38.17;98666.50;5057562;28;20211;-42
2021/01/24 02:28:22;;;;;;;4.60;4.30;;;;;;;20.35;38.08;98667.56;5074139;28;20240;-42
2021/01/24 02:30:48;;;;;;;5.10;4.70;;;;;;;20.34;38.21;98665.06;5074079;28;20218;-45
2021/01/24 02:33:24;;;;;;;4.50;4.20;;;;;;;20.34;38.24;98674.03;5057307;28;20191;-46
2021/01/24 02:35:53;;;;;;;4.50;4.20;;;;;;;20.32;38.42;98678.88;5057227;28;20264;-46
2021/01/24 02:38:20;;;;;;;4.70;4.40;;;;;;;20.32;38.43;98678.03;5057147;28;20521;-46
2021/01/24 02:40:46;;;;;;;4.50;4.20;;;;;;;20.31;38.60;98685.38;5053431;28;20192;-46
2021/01/24 02:43:12;;;;;;;5.00;4.60;;;;;;;20.31;38.55;98682.66;5053371;28;20208;-39
2021/01/24 02:45:45;;;;;;;4.70;4.40;;;;;;;20.33;38.39;98694.13;5053431;28;20305;-44
2021/01/24 02:48:13;;;;;;;4.60;4.30;;;;;;;20.32;38.59;98697.91;5053791;28;20180;-44
2021/01/24 02:50:40;;;;;;;4.57;4.27;;;;;;;20.32;38.67;98706.03;5053544;28;20873;-43
2021/01/24 02:53:06;;;;;;;4.90;4.50;;;;;;;20.32;38.69;98710.66;5073957;28;20229;-46
2021/01/24 02:55:32;;;;;;;4.80;4.40;;;;;;;20.32;38.79;98714.19;5056632;28;20639;-45
2021/01/24 02:57:58;;;;;;;4.30;4.00;;;;;;;20.34;38.66;98719.41;5040248;28;20190;-45
2021/01/24 03:00:24;;;;;;;4.23;3.93;;;;;;;20.35;38.66;98724.63;5056876;28;20240;-45
2021/01/24 03:02:51;;;;;;;4.50;4.20;;;;;;;20.34;38.69;98725.66;5074396;28;20625;-37
2021/01/24 03:05:17;;;;;;;4.40;4.10;;;;;;;20.35;38.65;98730.06;5073341;28;20225;-45
2021/01/24 03:07:43;;;;;;;4.37;4.07;;;;;;;20.36;38.46;98737.16;5074125;28;20180;-46
2021/01/24 03:10:10;;;;;;;4.50;4.20;;;;;;;20.36;38.70;98736.34;5074137;28;21013;-46
2021/01/24 03:12:40;;;;;;;4.20;3.90;;;;;;;20.36;38.55;98745.31;5073522;28;20267;-46
2021/01/24 03:15:07;;;;;;;4.30;4.00;;;;;;;20.36;38.22;98741.78;5073428;28;20254;-42
2021/01/24 03:17:35;;;;;;;4.23;3.93;;;;;;;20.36;38.60;98745.31;5056665;28;20219;-36
2021/01/24 03:20:01;;;;;;;4.27;3.97;;;;;;;20.35;38.40;98759.97;5039830;28;20657;-39
2021/01/24 03:22:27;;;;;;;4.03;3.83;;;;;;;20.35;38.41;98767.28;5074044;28;20242;-40
2021/01/24 03:24:54;;;;;;;4.00;3.70;;;;;;;20.33;38.44;98772.91;5072710;28;20568;-43
2021/01/24 03:27:20;;;;;;;4.10;3.80;;;;;;;20.33;38.35;98775.63;5056240;28;20243;-43
2021/01/24 03:29:46;;;;;;;3.97;3.67;;;;;;;20.30;38.40;98776.09;5073004;28;20586;-43
2021/01/24 03:32:12;;;;;;;4.20;3.90;;;;;;;20.31;38.29;98782.34;5072768;28;20198;-46
2021/01/24 03:34:38;;;;;;;4.10;3.80;;;;;;;20.30;38.34;98786.97;5073763;28;20180;-46
2021/01/24 03:37:04;;;;;;;4.03;3.73;;;;;;;20.30;38.45;98786.97;5072621;28;20246;-46
2021/01/24 03:39:30;;;;;;;3.90;3.60;;;;;;;20.30;38.55;98791.56;5073755;28;20318;-46
2021/01/24 03:41:56;;;;;;;4.00;3.70;;;;;;;20.30;38.51;98797.81;5073839;28;20258;-46
2021/01/24 03:44:23;;;;;;;3.93;3.67;;;;;;;20.31;38.67;98802.19;5073809;28;20229;-45
2021/01/24 03:46:49;;;;;;;3.60;3.40;;;;;;;20.31;38.68;98804.91;5073354;28;20581;-43
2021/01/24 03:49:15;;;;;;;3.57;3.37;;;;;;;20.31;38.68;98807.63;5073363;28;20257;-44
2021/01/24 03:51:41;;;;;;;3.40;3.20;;;;;;;20.31;38.80;98815.78;5072094;28;20270;-44
2021/01/24 03:54:07;;;;;;;3.90;3.60;;;;;;;20.33;38.85;98823.72;5073275;28;20188;-44
2021/01/24 03:56:33;;;;;;;3.57;3.37;;;;;;;20.34;38.76;98822.66;5072706;28;20238;-42
2021/01/24 03:58:59;;;;;;;3.83;3.53;;;;;;;20.34;38.68;98831.63;5073150;28;20203;-46
2021/01/24 04:01:25;;;;;;;3.90;3.60;;;;;;;20.34;38.74;98837.06;5073390;28;20222;-42
2021/01/24 04:03:51;;;;;;;3.80;3.50;;;;;;;20.35;38.47;98832.50;5073382;28;20207;-43
2021/01/24 04:06:17;;;;;;;3.90;3.60;;;;;;;20.34;38.71;98837.06;5073149;28;20273;-42
2021/01/24 04:08:43;;;;;;;3.53;3.33;;;;;;;20.35;38.43;98844.19;5073601;28;20270;-42
2021/01/24 04:11:10;;;;;;;3.73;3.53;;;;;;;20.34;38.56;98853.38;5072750;28;20218;-45
2021/01/24 04:13:36;;;;;;;3.97;3.67;;;;;;;20.33;38.57;98851.72;5073244;28;20180;-45
2021/01/24 04:16:02;;;;;;;3.70;3.40;;;;;;;20.34;38.56;98847.94;5073030;28;20215;-45
2021/01/24 04:18:28;;;;;;;3.57;3.37;;;;;;;20.33;38.59;98853.59;5072974;28;20183;-42
2021/01/24 04:20:54;;;;;;;3.80;3.60;;;;;;;20.33;38.60;98865.28;5072757;28;20512;-45
2021/01/24 04:23:20;;;;;;;3.30;3.10;;;;;;;20.32;38.59;98852.75;5072857;28;20631;-45
2021/01/24 04:25:46;;;;;;;3.50;3.30;;;;;;;20.32;38.59;98858.19;5071729;28;20210;-47
2021/01/24 04:28:12;;;;;;;3.50;3.30;;;;;;;20.32;38.59;98860.91;5073068;28;20203;-47
2021/01/24 04:30:38;;;;;;;3.43;3.23;;;;;;;20.32;38.58;98860.09;5055204;28;20179;-41
2021/01/24 04:33:06;;;;;;;3.20;3.00;;;;;;;20.32;38.67;98871.78;5072791;28;20330;-43
2021/01/24 04:35:32;;;;;;;3.50;3.20;;;;;;;20.32;38.62;98876.38;5072700;28;20192;-43
2021/01/24 04:37:59;;;;;;;3.63;3.33;;;;;;;20.32;38.53;98882.66;5072680;28;20176;-43
2021/01/24 04:40:25;;;;;;;3.10;2.90;;;;;;;20.32;38.44;98888.09;5072766;28;20215;-43
2021/01/24 04:42:51;;;;;;;3.27;3.07;;;;;;;20.32;38.69;98884.53;5054875;28;20184;-38
2021/01/24 04:45:18;;;;;;;3.37;3.17;;;;;;;20.31;38.70;98886.44;5037919;28;20744;-43
2021/01/24 04:47:45;;;;;;;3.67;3.47;;;;;;;20.31;38.70;98891.88;5071237;28;20189;-41
2021/01/24 04:50:12;;;;;;;3.30;3.10;;;;;;;20.32;38.62;98898.13;5054920;28;20198;-43
2021/01/24 04:52:38;;;;;;;3.33;3.13;;;;;;;20.32;38.52;98903.56;5055036;28;20188;-42
2021/01/24 04:55:04;;;;;;;3.20;3.00;;;;;;;20.31;38.61;98896.47;5071695;28;20256;-43
2021/01/24 04:57:30;;;;;;;3.47;3.27;;;;;;;20.30;38.51;98900.25;5072224;28;20218;-43
2021/01/24 04:59:56;;;;;;;3.17;2.97;;;;;;;20.31;38.41;98904.63;5071416;28;20215;-42
2021/01/24 05:02:22;;;;;;;3.20;3.00;;;;;;;20.30;38.52;98903.78;5072242;28;20503;-41
2021/01/24 05:04:49;;;;;;;3.20;3.00;;;;;;;20.30;38.45;98903.78;5054717;28;20186;-43
2021/01/24 05:07:16;;;;;;;3.27;3.07;;;;;;;20.30;38.54;98911.94;5072414;28;20212;-46
2021/01/24 05:09:45;;;;;;;3.20;3.00;;;;;;;20.29;38.60;98910.28;5071083;28;20189;-47
2021/01/24 05:12:11;;;;;;;3.07;2.87;;;;;;;20.28;38.48;98907.78;5071012;28;20179;-46
2021/01/24 05:14:37;;;;;;;2.80;2.60;;;;;;;20.27;38.49;98917.81;5071055;28;20199;-46
2021/01/24 05:17:03;;;;;;;3.13;2.93;;;;;;;20.27;38.40;98925.97;5071873;28;20322;-40
2021/01/24 05:19:31;;;;;;;2.90;2.70;;;;;;;20.27;38.31;98922.44;5072160;28;20236;-43
2021/01/24 05:21:57;;;;;;;3.00;2.80;;;;;;;20.26;38.53;98921.59;5071844;28;20634;-39
2021/01/24 05:24:23;;;;;;;3.00;2.80;;;;;;;20.26;38.42;98928.91;5053668;28;20237;-44
2021/01/24 05:26:50;;;;;;;2.70;2.60;;;;;;;20.26;38.53;98931.63;5071973;28;20661;-47
2021/01/24 05:29:23;;;;;;;3.07;2.87;;;;;;;20.28;38.44;98937.66;5072072;28;20198;-45
2021/01/24 05:31:51;;;;;;;3.10;2.90;;;;;;;20.25;38.60;98941.66;5071044;28;20191;-46
2021/01/24 05:34:17;;;;;;;2.90;2.70;;;;;;;20.26;38.73;98947.94;5070887;28;20180;-46
2021/01/24 05:36:46;;;;;;;2.93;2.73;;;;;;;20.27;38.71;98952.31;5071641;28;20213;-44
2021/01/24 05:39:13;;;;;;;2.63;2.53;;;;;;;20.28;38.76;98956.69;5071473;28;20213;-45
2021/01/24 05:41:41;;;;;;;3.00;2.80;;;;;;;20.29;38.75;98959.19;5071772;28;20274;-42
2021/01/24 05:44:13;;;;;;;2.97;2.77;;;;;;;20.29;38.73;98958.34;5071714;28;20196;-43
2021/01/24 05:46:40;;;;;;;3.10;2.90;;;;;;;20.29;38.65;98964.63;5071714;28;20196;-43
2021/01/24 05:49:07;;;;;;;2.70;2.60;;;;;;;20.30;38.90;98968.16;5070827;28;20176;-47
2021/01/24 05:51:33;;;;;;;2.70;2.60;;;;;;;20.31;38.89;98977.97;5070940;28;20179;-47
2021/01/24 05:53:59;;;;;;;3.00;2.80;;;;;;;20.32;38.78;98983.19;5070817;28;20226;-47
2021/01/24 05:56:25;;;;;;;2.90;2.70;;;;;;;20.31;38.61;98994.28;5070707;28;20287;-47
2021/01/24 05:58:58;;;;;;;2.67;2.53;;;;;;;20.34;38.72;98991.13;5071530;28;20278;-43
2021/01/24 06:01:24;;;;;;;2.90;2.70;;;;;;;20.33;38.80;99000.31;5071669;28;20194;-47
2021/01/24 06:03:52;;;;;;;2.70;2.50;;;;;;;20.31;38.77;99000.56;5071529;28;20609;-47
2021/01/24 06:06:18;;;;;;;2.63;2.53;;;;;;;20.33;38.54;99003.03;5071372;28;20195;-45
2021/01/24 06:08:44;;;;;;;2.53;2.40;;;;;;;20.32;38.72;99004.94;5053868;28;20271;-45
2021/01/24 06:11:11;;;;;;;2.80;2.60;;;;;;;20.32;38.57;99009.53;5071262;28;20175;-44
2021/01/24 06:13:37;;;;;;;2.90;2.70;;;;;;;20.31;38.44;99016.03;5053878;28;20176;-40
2021/01/24 06:16:08;;;;;;;2.70;2.50;;;;;;;20.32;38.70;99012.25;5037091;28;20664;-38
2021/01/24 06:19:01;;;;;;;2.73;2.60;;;;;;;20.32;38.34;99012.25;5070511;28;20235;-36
2021/01/24 06:21:28;;;;;;;2.50;2.40;;;;;;;20.29;38.34;99018.97;5070200;28;20852;-40
2021/01/24 06:24:05;;;;;;;2.63;2.43;;;;;;;20.28;38.20;99016.47;5071421;28;20665;-37
2021/01/24 06:26:31;;;;;;;2.50;2.40;;;;;;;20.27;38.36;99031.09;5054742;28;20252;-40
2021/01/24 06:29:04;;;;;;;2.40;2.30;;;;;;;20.27;38.35;99029.22;5070107;28;20539;-46
2021/01/24 06:31:30;;;;;;;2.40;2.30;;;;;;;20.26;38.56;99029.44;5070418;28;20198;-44
2021/01/24 06:34:02;;;;;;;2.60;2.40;;;;;;;20.24;38.51;99033.22;5070574;28;20245;-44
2021/01/24 06:36:28;;;;;;;2.63;2.53;;;;;;;20.24;38.46;99044.06;5074155;28;20234;-45
2021/01/24 06:38:55;;;;;;;2.40;2.30;;;;;;;20.24;38.66;99043.25;5074957;28;20207;-43
2021/01/24 06:41:47;;;;;;;2.50;2.40;;;;;;;20.27;38.44;99053.66;5075161;28;20199;-43
2021/01/24 06:44:48;;;;;;;2.50;2.40;;;;;;;20.29;38.38;99058.88;5075579;28;20801;-42
2021/01/24 06:47:41;;;;;;;2.37;2.27;;;;;;;20.27;38.61;99064.53;5092512;28;20282;-44
2021/01/24 06:50:41;;;;;;;2.40;2.30;;;;;;;20.28;38.81;99063.50;5064482;28;20581;-44
2021/01/24 06:53:11;;;;;;;2.40;2.30;;;;;;;20.27;38.86;99069.16;5074330;28;20230;-43
2021/01/24 06:55:38;;;;;;;2.30;2.20;;;;;;;20.26;38.86;99076.47;5072203;28;20211;-46
2021/01/24 06:58:29;;;;;;;2.40;2.30;;;;;;;20.27;38.75;99078.13;5067423;28;20206;-44
2021/01/24 07:01:22;;;;;;;2.60;2.40;;;;;;;20.28;38.47;99082.50;5074224;28;20207;-44
2021/01/24 07:04:08;;;;;;;2.63;2.43;;;;;;;20.27;38.44;99096.31;5074231;28;20180;-44
2021/01/24 07:06:34;;;;;;;2.30;2.20;;;;;;;20.27;38.67;99090.88;5073369;28;20556;-41
2021/01/24 07:09:01;;;;;;;2.30;2.20;;;;;;;20.26;38.72;99100.91;5074243;28;20176;-48
2021/01/24 07:11:50;;;;;;;2.20;2.10;;;;;;;20.28;38.60;99114.28;5074417;28;20637;-47
2021/01/24 07:14:39;;;;;;;2.20;2.10;;;;;;;20.28;38.61;99115.09;5074175;28;20617;-44
2021/01/24 07:17:06;;;;;;;2.40;2.30;;;;;;;20.27;38.48;99127.03;5073875;28;20218;-44
2021/01/24 07:19:34;;;;;;;2.10;2.00;;;;;;;20.27;38.61;99121.59;5072975;28;20211;-47
2021/01/24 07:22:00;;;;;;;2.40;2.30;;;;;;;20.25;38.46;99123.69;5074044;28;20219;-47
2021/01/24 07:24:26;;;;;;;2.20;2.10;;;;;;;20.25;38.47;99126.41;5072810;28;20198;-45
2021/01/24 07:26:55;;;;;;;2.10;2.00;;;;;;;20.28;38.60;99133.28;5073221;28;20207;-45
2021/01/24 07:29:25;;;;;;;2.33;2.23;;;;;;;20.26;38.52;99140.84;5074178;28;20176;-46
2021/01/24 07:31:51;;;;;;;2.10;2.00;;;;;;;20.23;38.39;99142.94;5074035;28;20194;-47
2021/01/24 07:34:24;;;;;;;2.30;2.20;;;;;;;20.26;38.42;99151.72;5072906;28;20266;-43
2021/01/24 07:36:50;;;;;;;2.43;2.33;;;;;;;20.24;38.50;99151.91;5073779;28;20218;-42
2021/01/24 07:39:17;;;;;;;2.27;2.17;;;;;;;20.23;38.37;99156.53;5073633;28;20649;-40
2021/01/24 07:41:43;;;;;;;2.40;2.30;;;;;;;20.24;38.67;99158.19;5072864;28;20587;-41
2021/01/24 07:44:10;;;;;;;2.13;2.03;;;;;;;20.24;38.60;99168.22;5073734;28;20199;-44
2021/01/24 07:46:36;;;;;;;2.20;2.10;;;;;;;20.24;38.47;99170.94;5072512;28;20210;-44
2021/01/24 07:49:02;;;;;;;2.10;2.00;;;;;;;20.24;38.60;99179.09;5073462;28;20262;-44
2021/01/24 07:51:28;;;;;;;2.20;2.10;;;;;;;20.25;38.65;99183.47;5073268;28;20274;-44
2021/01/24 07:53:55;;;;;;;2.10;2.00;;;;;;;20.24;38.50;99181.81;5072653;28;20206;-44
2021/01/24 07:56:21;;;;;;;2.10;2.00;;;;;;;20.24;38.76;99188.06;5072335;28;20679;-44
2021/01/24 07:58:47;;;;;;;2.03;1.93;;;;;;;20.25;38.73;99191.63;5073380;28;20175;-40
2021/01/24 08:01:14;;;;;;;2.27;2.17;;;;;;;20.26;38.57;99193.28;5072534;28;20180;-41
2021/01/24 08:03:42;;;;;;;2.10;2.00;;;;;;;20.26;38.49;99193.28;5072275;28;20240;-43
2021/01/24 08:06:12;;;;;;;2.17;2.07;;;;;;;20.26;38.42;99197.91;5073054;28;20222;-43
2021/01/24 08:08:38;;;;;;;2.10;2.00;;;;;;;20.24;38.60;99207.09;5072300;28;20203;-41
2021/01/24 08:11:04;;;;;;;2.00;1.90;;;;;;;20.23;38.53;99210.88;5073217;28;20703;-47
2021/01/24 08:13:30;;;;;;;2.10;2.00;;;;;;;20.23;38.37;99210.03;5072951;28;20187;-47
2021/01/24 08:16:00;;;;;;;2.00;1.90;;;;;;;20.23;38.26;99213.59;5072388;28;20219;-47
2021/01/24 08:18:30;;;;;;;2.00;1.90;;;;;;;20.22;38.36;99220.06;5071715;28;20184;-44
2021/01/24 08:20:56;;;;;;;1.80;1.70;;;;;;;20.21;38.22;99223.84;5071722;28;20545;-44
2021/01/24 08:23:23;;;;;;;1.80;1.70;;;;;;;20.22;38.25;99224.66;5072106;28;20187;-44
2021/01/24 08:25:49;;;;;;;2.20;2.10;;;;;;;20.21;38.12;99229.28;5072604;28;20210;-44
2021/01/24 08:28:15;;;;;;;1.93;1.83;;;;;;;20.20;38.51;99232.19;5054780;28;20192;-48
2021/01/24 08:30:44;;;;;;;1.90;1.80;;;;;;;20.20;38.53;99232.19;5071361;28;20668;-45
2021/01/24 08:33:11;;;;;;;2.00;1.90;;;;;;;20.21;38.73;99234.69;5071449;28;20233;-41
2021/01/24 08:35:37;;;;;;;1.80;1.70;;;;;;;20.20;38.62;99243.91;5071744;28;20218;-41
2021/01/24 08:38:03;;;;;;;2.00;1.90;;;;;;;20.21;38.84;99247.44;5071666;28;20175;-43
2021/01/24 08:40:36;;;;;;;2.00;1.90;;;;;;;20.23;38.64;99243.47;5072343;28;20223;-44
2021/01/24 08:43:03;;;;;;;1.80;1.70;;;;;;;20.22;38.71;99247.25;5072223;28;20179;-44
2021/01/24 08:45:29;;;;;;;1.80;1.70;;;;;;;20.24;38.87;99260.59;5072152;28;20540;-44
2021/01/24 08:47:56;;;;;;;1.93;1.83;;;;;;;20.24;38.64;99258.72;5072457;28;20746;-44
2021/01/24 08:50:23;;;;;;;2.00;1.90;;;;;;;20.23;38.91;99267.09;5072989;28;20269;-40
2021/01/24 08:52:56;;;;;;;1.90;1.80;;;;;;;20.25;38.68;99267.72;5054800;28;20213;-43
2021/01/24 08:55:22;;;;;;;1.87;1.77;;;;;;;20.24;38.77;99271.47;5072238;28;20176;-42
2021/01/24 08:57:48;;;;;;;1.90;1.80;;;;;;;20.23;38.51;99273.34;5072021;28;20179;-35
2021/01/24 09:00:16;;;;;;;1.67;1.57;;;;;;;20.23;38.62;99278.78;5071275;28;20276;-43
2021/01/24 09:02:42;;;;;;;2.07;1.97;;;;;;;20.23;38.52;99277.97;5072473;28;20187;-40
2021/01/24 09:05:13;;;;;;;1.70;1.60;;;;;;;20.23;38.45;99291.53;5054634;28;20191;-45
2021/01/24 09:07:40;;;;;;;1.83;1.73;;;;;;;20.22;38.29;99290.72;5072206;28;20210;-45
2021/01/24 09:10:22;;;;;;;1.90;1.80;;;;;;;20.23;38.45;99291.53;5065646;28;20183;-47
2021/01/24 09:12:52;;;;;;;1.80;1.70;;;;;;;20.22;38.33;99296.13;5054625;28;20200;-47
2021/01/24 09:15:19;;;;;;;1.80;1.70;;;;;;;20.20;38.38;99298.25;5072311;28;20262;-47
2021/01/24 09:17:46;;;;;;;1.80;1.70;;;;;;;20.19;38.23;99295.75;5071220;28;20195;-47
2021/01/24 09:20:12;;;;;;;1.73;1.63;;;;;;;20.19;38.34;99295.75;5071983;28;20192;-47
2021/01/24 09:22:38;;;;;;;1.80;1.70;;;;;;;20.19;38.42;99307.44;5067192;28;20532;-47
2021/01/24 09:25:05;;;;;;;2.00;1.90;;;;;;;20.19;38.44;99310.16;5063512;28;20195;-47
2021/01/24 09:27:31;;;;;;;1.87;1.77;;;;;;;20.19;38.52;99306.59;5070960;28;20202;-37
2021/01/24 09:29:57;;;;;;;1.80;1.70;;;;;;;20.18;38.43;99313.94;5070841;28;20574;-47
2021/01/24 09:32:24;;;;;;;1.83;1.73;;;;;;;20.17;38.68;99309.53;5070582;28;20194;-48
2021/01/24 09:34:50;;;;;;;2.10;1.90;;;;;;;20.17;38.59;99314.97;5067539;28;20196;-48
2021/01/24 09:37:16;;;;;;;1.90;1.80;;;;;;;20.16;38.47;99307.03;5067408;28;20203;-48
2021/01/24 09:39:42;;;;;;;1.90;1.80;;;;;;;20.19;38.49;99317.47;5071783;28;20211;-38
2021/01/24 09:42:08;;;;;;;1.80;1.70;;;;;;;20.19;38.68;99329.19;5070525;28;20282;-37
2021/01/24 09:44:34;;;;;;;1.90;1.80;;;;;;;20.19;38.69;99320.19;5069700;28;20393;-38
2021/01/24 09:47:00;;;;;;;2.03;1.93;;;;;;;20.22;38.61;99317.03;5064967;28;20199;-40
2021/01/24 09:49:27;;;;;;;1.87;1.77;;;;;;;20.22;38.59;99319.75;5071370;28;20644;-40
2021/01/24 09:51:53;;;;;;;2.10;1.90;;;;;;;20.22;38.37;99323.31;5070789;28;20187;-40
2021/01/24 09:54:19;;;;;;;1.80;1.70;;;;;;;20.23;38.38;99324.97;5070464;28;20230;-41
2021/01/24 09:56:45;;;;;;;2.00;1.90;;;;;;;20.24;38.57;99342.13;5071182;28;20254;-41
2021/01/24 09:59:11;;;;;;;1.90;1.80;;;;;;;20.24;38.32;99342.94;5071261;28;20231;-41
2021/01/24 10:01:38;;;;;;;1.97;1.87;;;;;;;20.23;38.37;99352.16;5070744;28;20202;-43
2021/01/24 10:04:04;;;;;;;2.37;1.80;;;;;;;20.24;38.41;99347.56;5070685;28;20183;-43
2021/01/24 10:06:30;;;;;;;2.00;1.90;;;;;;;20.26;38.56;99364.47;5070638;28;20221;-42
2021/01/24 10:08:56;;;;;;;1.80;1.70;;;;;;;20.28;38.57;99366.97;5070801;28;20191;-39
2021/01/24 10:11:23;;;;;;;1.70;1.60;;;;;;;20.30;38.65;99368.44;5075445;28;20176;-43
2021/01/24 10:13:49;;;;;;;1.70;1.60;;;;;;;20.36;38.86;99358.63;5057687;28;20274;-45
2021/01/24 10:16:15;;;;;;;2.00;1.90;;;;;;;20.40;38.93;99363.44;5057478;28;20714;-45
2021/01/24 10:18:41;;;;;;;1.60;1.50;;;;;;;20.47;39.00;99371.56;5075401;28;20172;-46
2021/01/24 10:21:08;;;;;;;1.70;1.60;;;;;;;20.53;39.03;99374.25;5075268;28;20192;-46
2021/01/24 10:23:34;;;;;;;1.87;1.77;;;;;;;20.61;39.04;99385.97;5075232;28;20843;-45
2021/01/24 10:26:00;;;;;;;1.90;1.80;;;;;;;20.67;39.22;99382.38;5075304;28;20235;-48
2021/01/24 10:28:26;;;;;;;2.00;1.90;;;;;;;20.74;39.23;99394.06;5075435;28;20227;-41
2021/01/24 10:30:53;;;;;;;1.60;1.50;;;;;;;20.81;39.23;99394.88;5074255;28;20171;-44
2021/01/24 10:33:19;;;;;;;1.90;1.80;;;;;;;20.89;39.19;99389.22;5074195;28;20175;-42
2021/01/24 10:35:45;;;;;;;1.63;1.60;;;;;;;20.96;39.34;99390.00;5073740;28;20610;-42
2021/01/24 10:38:15;;;;;;;1.80;1.70;;;;;;;21.04;39.28;99391.63;5074332;28;20688;-39
2021/01/24 10:40:42;;;;;;;1.77;1.67;;;;;;;21.11;39.18;99381.56;5074949;28;20213;-40
2021/01/24 10:43:08;;;;;;;1.60;1.60;;;;;;;21.18;39.28;99381.53;5075096;28;20187;-41
2021/01/24 10:45:34;;;;;;;1.63;1.53;;;;;;;21.25;39.22;99391.34;5074423;28;20192;-41
2021/01/24 10:48:01;;;;;;;1.93;1.70;;;;;;;21.32;39.13;99400.34;5073245;28;20649;-40
2021/01/24 10:50:27;;;;;;;1.87;1.77;;;;;;;21.39;39.31;99394.84;5074038;28;20640;-35
2021/01/24 10:52:53;;;;;;;1.57;1.47;;;;;;;21.46;39.29;99401.06;5073874;28;20616;-35
2021/01/24 10:55:20;;;;;;;1.90;1.80;;;;;;;21.53;39.12;99396.44;5074815;28;20176;-35
2021/01/24 10:57:46;;;;;;;1.50;1.50;;;;;;;21.61;38.91;99398.88;5074763;28;20283;-35
2021/01/24 11:00:12;;;;;;;1.80;1.70;;;;;;;21.67;38.88;99398.00;5074809;28;20291;-35
2021/01/24 11:02:38;;;;;;;1.40;1.30;;;;;;;21.73;38.96;99399.81;5073605;28;20183;-37
2021/01/24 11:05:05;;;;;;;1.80;1.70;;;;;;;21.81;38.89;99403.34;5073339;28;20198;-37
2021/01/24 11:07:32;;;;;;;1.70;1.60;;;;;;;21.88;38.71;99409.56;5073207;28;20212;-37
2021/01/24 11:09:58;;;;;;;1.80;1.70;;;;;;;21.94;39.02;99414.13;5064615;28;20815;-37
2021/01/24 11:12:24;;;;;;;1.83;1.73;;;;;;;21.99;38.71;99412.41;5074267;28;20227;-40
2021/01/24 11:14:50;;;;;;;1.50;1.50;;;;;;;22.06;38.81;99420.56;5074274;28;20183;-40
2021/01/24 11:17:17;;;;;;;1.60;1.50;;;;;;;22.12;38.79;99416.94;5070498;28;20546;-39
2021/01/24 11:19:50;;;;;;;1.90;1.80;;;;;;;22.18;38.75;99409.75;5074388;28;20676;-37
2021/01/24 11:22:17;;;;;;;1.87;1.77;;;;;;;22.24;38.78;99415.19;5072124;28;20186;-37
2021/01/24 11:24:43;;;;;;;1.53;1.47;;;;;;;22.29;38.66;99412.59;5074158;28;20199;-37
2021/01/24 11:27:09;;;;;;;1.67;1.57;;;;;;;22.35;38.80;99406.25;5073610;28;20211;-37
2021/01/24 11:29:35;;;;;;;1.30;1.30;;;;;;;22.40;38.63;99408.28;5073222;28;20241;-35
2021/01/24 11:32:01;;;;;;;1.83;1.73;;;;;;;22.46;38.80;99407.38;5074070;28;20613;-35
2021/01/24 11:34:28;;;;;;;1.70;1.60;;;;;;;22.52;38.66;99411.13;5073827;28;20321;-35
2021/01/24 11:36:54;;;;;;;1.60;1.50;;;;;;;22.57;38.64;99419.47;5073639;28;20276;-35